Time;durP1;ratioP1;P1;durP2;ratioP2;P2;SDS_P1;SDS_P2;PMS_P1;PMS_P2;Temp;Humidity;BMP_temperature;BMP_pressure;BME280_temperature;BME280_humidity;BME280_pressure;Samples;Min_cycle;Max_cycle;Signal;HPM_P1;HPM_P2
2022/11/14 00:00:23;;;;;;;23.40;21.00;;;11.10;99.90;;;;;;6201073;28;20554;-61
2022/11/14 00:03:26;;;;;;;22.43;20.23;;;11.10;99.90;;;;;;6201012;28;20473;-62
2022/11/14 00:06:30;;;;;;;25.63;19.60;;;11.10;99.90;;;;;;6201195;28;20472;-61
2022/11/14 00:09:36;;;;;;;20.40;18.27;;;11.10;99.90;;;;;;6200733;28;20476;-61
2022/11/14 00:12:39;;;;;;;21.20;19.00;;;11.10;99.90;;;;;;6200888;28;20477;-61
2022/11/14 00:15:42;;;;;;;26.77;20.17;;;11.10;99.90;;;;;;6200817;28;20481;-61
2022/11/14 00:18:46;;;;;;;21.00;18.90;;;11.10;99.90;;;;;;6200806;28;20945;-61
2022/11/14 00:21:51;;;;;;;20.17;18.20;;;11.10;99.90;;;;;;6200350;28;20860;-62
2022/11/14 00:24:55;;;;;;;20.10;18.00;;;11.10;99.90;;;;;;6200433;28;20830;-61
2022/11/14 00:27:59;;;;;;;19.53;17.50;;;11.10;99.90;;;;;;6200176;28;20492;-61
2022/11/14 00:31:02;;;;;;;19.57;17.47;;;11.10;99.90;;;;;;6199903;28;20535;-61
2022/11/14 00:34:05;;;;;;;18.47;16.50;;;11.10;99.90;;;;;;6200062;28;20532;-60
2022/11/14 00:37:08;;;;;;;20.33;16.60;;;11.10;99.90;;;;;;6179607;28;20484;-60
2022/11/14 00:40:14;;;;;;;17.10;15.40;;;11.10;99.90;;;;;;6200149;28;20481;-60
2022/11/14 00:43:17;;;;;;;20.90;16.40;;;11.10;99.90;;;;;;6200567;28;20480;-63
2022/11/14 00:46:21;;;;;;;15.73;14.17;;;11.10;99.90;;;;;;6198905;28;20555;-60
2022/11/14 00:49:24;;;;;;;16.40;14.67;;;11.10;99.90;;;;;;6199214;28;20468;-60
2022/11/14 00:52:27;;;;;;;16.83;14.67;;;11.10;99.90;;;;;;6199806;28;20453;-61
2022/11/14 00:55:31;;;;;;;16.73;14.80;;;11.10;99.90;;;;;;6206430;28;20554;-61
2022/11/14 00:58:34;;;;;;;17.90;15.30;;;11.00;99.90;;;;;;6209120;28;20448;-61
2022/11/14 01:01:37;;;;;;;17.27;15.57;;;11.10;99.90;;;;;;6212714;28;20500;-60
2022/11/14 01:04:41;;;;;;;17.63;15.57;;;11.00;99.90;;;;;;6208126;28;20484;-61
2022/11/14 01:07:44;;;;;;;16.23;14.53;;;11.00;99.90;;;;;;6212231;28;20958;-61
2022/11/14 01:10:50;;;;;;;16.63;15.00;;;11.00;99.90;;;;;;6211400;28;20948;-61
2022/11/14 01:13:53;;;;;;;17.77;15.97;;;11.00;99.90;;;;;;6210730;28;20472;-61
2022/11/14 01:16:56;;;;;;;17.07;15.33;;;11.00;99.90;;;;;;6212791;28;20477;-61
2022/11/14 01:19:59;;;;;;;17.00;15.30;;;11.00;99.90;;;;;;6211585;28;20487;-61
2022/11/14 01:23:03;;;;;;;36.17;26.03;;;10.90;99.90;;;;;;6213889;28;20526;-61
2022/11/14 01:26:09;;;;;;;23.23;17.50;;;10.90;99.90;;;;;;6210283;28;20496;-61
2022/11/14 01:29:12;;;;;;;28.07;22.73;;;10.80;99.90;;;;;;6211099;28;20479;-61
2022/11/14 01:32:16;;;;;;;37.73;29.43;;;10.80;99.90;;;;;;6207276;28;20479;-61
2022/11/14 01:35:19;;;;;;;22.60;17.90;;;10.80;99.90;;;;;;6199866;28;20473;-61
2022/11/14 01:38:22;;;;;;;24.00;21.67;;;10.80;99.90;;;;;;6191062;28;20535;-61
2022/11/14 01:41:26;;;;;;;21.10;18.87;;;10.70;99.90;;;;;;6199900;28;20484;-61
2022/11/14 01:44:45;;;;;;;22.20;18.93;;;10.60;99.90;;;;;;6202799;28;20469;-61
2022/11/14 01:47:49;;;;;;;23.27;20.87;;;10.60;99.90;;;;;;6204014;28;20489;-61
2022/11/14 01:50:57;;;;;;;19.87;17.53;;;10.60;99.90;;;;;;6203853;28;20480;-62
2022/11/14 01:54:03;;;;;;;22.73;17.43;;;10.60;99.90;;;;;;6203737;28;20953;-62
2022/11/14 01:57:09;;;;;;;19.37;17.37;;;10.60;99.90;;;;;;6204173;28;20480;-62
2022/11/14 02:00:13;;;;;;;18.30;16.43;;;10.60;99.90;;;;;;6204056;28;20481;-62
2022/11/14 02:03:17;;;;;;;20.40;17.13;;;10.70;99.90;;;;;;6204079;28;20480;-62
2022/11/14 02:06:23;;;;;;;19.53;17.07;;;10.70;99.90;;;;;;6206759;28;20514;-62
2022/11/14 02:09:30;;;;;;;18.53;16.57;;;10.70;99.90;;;;;;6227387;28;20479;-62
2022/11/14 02:12:35;;;;;;;20.80;17.20;;;10.70;99.90;;;;;;6228263;28;20476;-62
2022/11/14 02:15:39;;;;;;;21.10;17.70;;;10.70;99.90;;;;;;6228106;28;20834;-62
2022/11/14 02:18:42;;;;;;;20.20;16.00;;;10.70;99.90;;;;;;6228204;28;20467;-62
2022/11/14 02:21:46;;;;;;;18.03;16.30;;;10.70;99.90;;;;;;6228007;28;20491;-62
2022/11/14 02:24:49;;;;;;;17.97;16.07;;;10.70;99.90;;;;;;6227499;28;20484;-62
2022/11/14 02:27:53;;;;;;;16.93;15.23;;;10.70;99.90;;;;;;6227843;28;20479;-62
2022/11/14 02:30:56;;;;;;;18.83;16.27;;;10.70;99.90;;;;;;6227531;28;20967;-62
2022/11/14 02:33:59;;;;;;;20.67;17.50;;;10.70;99.90;;;;;;6227690;28;20483;-62
2022/11/14 02:37:04;;;;;;;19.03;16.70;;;10.70;99.90;;;;;;6227398;28;20455;-62
2022/11/14 02:40:09;;;;;;;17.10;15.30;;;10.60;99.90;;;;;;6227337;28;20500;-62
2022/11/14 02:43:12;;;;;;;15.83;14.10;;;10.70;99.90;;;;;;6222938;28;20487;-62
2022/11/14 02:46:15;;;;;;;16.07;14.57;;;10.70;99.90;;;;;;6227296;28;20516;-62
2022/11/14 02:49:18;;;;;;;16.80;15.00;;;10.70;99.90;;;;;;6226951;28;20484;-62
2022/11/14 02:52:22;;;;;;;17.80;14.83;;;10.70;99.90;;;;;;6227156;28;20947;-62
2022/11/14 02:55:26;;;;;;;19.87;17.00;;;10.70;99.90;;;;;;6226314;28;20460;-61
2022/11/14 02:58:29;;;;;;;17.60;15.80;;;10.70;99.90;;;;;;6226955;28;20447;-61
2022/11/14 03:01:32;;;;;;;18.27;16.20;;;10.70;99.90;;;;;;6227296;28;20499;-61
2022/11/14 03:04:35;;;;;;;20.37;17.10;;;10.60;99.90;;;;;;6205758;28;20607;-60
2022/11/14 03:07:40;;;;;;;18.40;16.50;;;10.60;99.90;;;;;;6202297;28;20789;-60
2022/11/14 03:10:43;;;;;;;18.93;16.93;;;10.60;99.90;;;;;;6218397;28;20484;-60
2022/11/14 03:13:46;;;;;;;19.17;16.93;;;10.60;99.90;;;;;;6226579;28;20486;-60
2022/11/14 03:16:49;;;;;;;17.73;15.90;;;10.60;99.90;;;;;;6227282;28;20479;-61
2022/11/14 03:19:52;;;;;;;19.17;16.60;;;10.70;99.90;;;;;;6227821;28;20480;-60
2022/11/14 03:22:57;;;;;;;21.40;16.33;;;10.70;99.90;;;;;;6226855;28;20483;-62
2022/11/14 03:26:00;;;;;;;19.30;16.03;;;10.60;99.90;;;;;;6227009;28;20511;-62
2022/11/14 03:29:04;;;;;;;15.70;14.10;;;10.50;99.90;;;;;;6226788;28;20546;-62
2022/11/14 03:32:07;;;;;;;22.17;17.07;;;10.50;99.90;;;;;;6227318;28;20483;-62
2022/11/14 03:35:10;;;;;;;18.83;16.93;;;10.50;99.90;;;;;;6227075;28;20476;-62
2022/11/14 03:38:15;;;;;;;16.53;14.93;;;10.50;99.90;;;;;;6226615;28;20468;-62
2022/11/14 03:41:18;;;;;;;17.40;15.60;;;10.40;99.90;;;;;;6226790;28;20990;-62
2022/11/14 03:44:21;;;;;;;17.10;15.27;;;10.40;99.90;;;;;;6222313;28;20800;-62
2022/11/14 03:47:24;;;;;;;17.20;15.20;;;10.40;99.90;;;;;;6227098;28;20480;-62
2022/11/14 03:50:28;;;;;;;16.33;14.63;;;10.40;99.90;;;;;;6226451;28;20491;-62
2022/11/14 03:53:32;;;;;;;15.70;14.10;;;10.40;99.90;;;;;;6226010;28;20479;-62
2022/11/14 03:56:35;;;;;;;15.60;13.53;;;10.30;99.90;;;;;;6226153;28;20487;-62
2022/11/14 03:59:38;;;;;;;16.07;14.57;;;10.30;99.90;;;;;;6226600;28;20802;-62
2022/11/14 04:02:42;;;;;;;16.80;15.20;;;10.30;99.90;;;;;;6226208;28;20483;-62
2022/11/14 04:05:45;;;;;;;16.70;14.93;;;10.30;99.90;;;;;;6226071;28;20476;-62
2022/11/14 04:08:50;;;;;;;17.10;15.30;;;10.30;99.90;;;;;;6226422;28;20492;-62
2022/11/14 04:11:53;;;;;;;15.77;14.07;;;10.30;99.90;;;;;;6226207;28;20964;-62
2022/11/14 04:14:57;;;;;;;15.60;13.90;;;10.30;99.90;;;;;;6226395;28;20472;-62
2022/11/14 04:18:00;;;;;;;19.40;15.60;;;10.40;99.90;;;;;;6225963;28;20472;-62
2022/11/14 04:21:04;;;;;;;15.60;13.90;;;10.40;99.90;;;;;;6226009;28;20472;-62
2022/11/14 04:24:08;;;;;;;23.23;19.23;;;10.40;99.90;;;;;;6225771;28;20476;-62
2022/11/14 04:27:13;;;;;;;26.93;20.97;;;10.40;99.90;;;;;;6225914;28;20486;-61
2022/11/14 04:30:16;;;;;;;22.50;18.13;;;10.40;99.90;;;;;;6225813;28;20476;-61
2022/11/14 04:33:19;;;;;;;20.20;15.77;;;10.30;99.90;;;;;;6225482;28;20503;-61
2022/11/14 04:36:22;;;;;;;17.03;15.23;;;10.30;99.90;;;;;;6225563;28;20492;-61
2022/11/14 04:39:27;;;;;;;19.07;17.17;;;10.40;99.90;;;;;;6225711;28;20484;-61
2022/11/14 04:42:30;;;;;;;20.20;18.10;;;10.40;99.90;;;;;;6225643;28;20968;-62
2022/11/14 04:45:33;;;;;;;19.30;17.20;;;10.30;99.90;;;;;;6225091;28;20924;-61
2022/11/14 04:48:36;;;;;;;18.67;16.40;;;10.30;99.90;;;;;;6224923;28;20492;-61
2022/11/14 04:51:39;;;;;;;18.50;16.50;;;10.30;99.90;;;;;;6225323;28;20472;-62
2022/11/14 04:54:44;;;;;;;19.90;15.37;;;10.30;99.90;;;;;;6226294;28;20495;-61
2022/11/14 04:57:47;;;;;;;16.10;14.40;;;10.20;99.90;;;;;;6225247;28;20983;-62
2022/11/14 05:00:51;;;;;;;18.70;15.30;;;10.30;99.90;;;;;;6225247;28;20472;-62
2022/11/14 05:03:55;;;;;;;17.63;14.73;;;10.30;99.90;;;;;;6225073;28;20975;-62
2022/11/14 05:06:58;;;;;;;17.93;15.10;;;10.30;99.90;;;;;;6224705;28;20483;-62
2022/11/14 05:10:04;;;;;;;20.00;16.13;;;10.30;99.90;;;;;;6224885;28;20484;-62
2022/11/14 05:13:07;;;;;;;17.83;15.93;;;10.30;99.90;;;;;;6224880;28;20476;-62
2022/11/14 05:16:10;;;;;;;16.80;15.10;;;10.30;99.90;;;;;;6224101;28;20574;-62
2022/11/14 05:19:13;;;;;;;20.10;16.80;;;10.30;99.90;;;;;;6227278;28;20487;-62
2022/11/14 05:22:17;;;;;;;18.03;16.13;;;10.30;99.90;;;;;;6229154;28;20472;-62
2022/11/14 05:25:22;;;;;;;18.97;16.47;;;10.20;99.90;;;;;;6228996;28;20484;-62
2022/11/14 05:28:25;;;;;;;18.00;16.00;;;10.20;99.90;;;;;;6229511;28;20460;-62
2022/11/14 05:31:28;;;;;;;22.43;16.63;;;10.20;99.90;;;;;;6229463;28;20484;-62
2022/11/14 05:34:31;;;;;;;17.23;15.00;;;10.20;99.90;;;;;;6229583;28;20463;-62
2022/11/14 05:37:35;;;;;;;16.93;15.13;;;10.30;99.90;;;;;;6229331;28;20515;-61
2022/11/14 05:40:39;;;;;;;17.77;14.97;;;10.30;99.90;;;;;;6229527;28;20436;-61
2022/11/14 05:43:43;;;;;;;20.93;19.00;;;10.40;99.90;;;;;;6229524;28;20777;-61
2022/11/14 05:46:46;;;;;;;42.53;38.33;;;10.40;99.90;;;;;;6229707;28;20599;-61
2022/11/14 05:49:50;;;;;;;21.00;18.70;;;10.40;99.90;;;;;;6229562;28;20570;-61
2022/11/14 05:52:53;;;;;;;17.03;15.33;;;10.40;99.90;;;;;;6220246;28;20467;-61
2022/11/14 05:56:00;;;;;;;16.73;15.10;;;10.40;99.90;;;;;;6228964;28;20510;-61
2022/11/14 05:59:03;;;;;;;17.67;15.83;;;10.30;99.90;;;;;;6229238;28;20499;-61
2022/11/14 06:02:07;;;;;;;23.73;19.07;;;10.30;99.90;;;;;;6228811;28;20546;-61
2022/11/14 06:05:10;;;;;;;17.27;15.50;;;10.30;99.90;;;;;;6229070;28;20471;-61
2022/11/14 06:08:13;;;;;;;20.40;15.00;;;10.30;99.90;;;;;;6228681;28;21302;-61
2022/11/14 06:11:20;;;;;;;18.13;15.47;;;10.30;99.90;;;;;;6228836;28;20948;-61
2022/11/14 06:14:23;;;;;;;17.63;15.73;;;10.30;99.90;;;;;;6228380;28;20976;-61
2022/11/14 06:17:26;;;;;;;18.50;16.33;;;10.30;99.90;;;;;;6228173;28;20499;-61
2022/11/14 06:20:29;;;;;;;18.10;15.50;;;10.30;99.90;;;;;;6228215;28;20485;-62
2022/11/14 06:23:32;;;;;;;19.50;17.43;;;10.30;99.90;;;;;;6227692;28;20472;-62
2022/11/14 06:26:37;;;;;;;21.37;16.60;;;10.30;99.90;;;;;;6228636;28;20483;-62
2022/11/14 06:29:40;;;;;;;18.07;16.10;;;10.30;99.90;;;;;;6227440;28;20480;-62
2022/11/14 06:32:43;;;;;;;19.80;17.67;;;10.30;99.90;;;;;;6228043;28;20800;-62
2022/11/14 06:35:46;;;;;;;18.50;16.53;;;10.30;99.90;;;;;;6227652;28;20526;-62
2022/11/14 06:38:49;;;;;;;21.60;18.77;;;10.40;99.90;;;;;;6228254;28;20468;-62
2022/11/14 06:41:54;;;;;;;21.60;18.17;;;10.40;99.90;;;;;;6227914;28;20487;-62
2022/11/14 06:44:57;;;;;;;24.40;20.53;;;10.50;99.90;;;;;;6227876;28;20487;-62
2022/11/14 06:48:00;;;;;;;22.90;19.50;;;10.50;99.90;;;;;;6227803;28;21025;-62
2022/11/14 06:51:04;;;;;;;25.63;18.90;;;10.60;99.90;;;;;;6227795;28;21013;-60
2022/11/14 06:54:10;;;;;;;21.87;18.53;;;10.60;99.90;;;;;;6227737;28;20468;-62
2022/11/14 06:57:15;;;;;;;22.53;17.50;;;10.60;99.90;;;;;;6223042;28;20472;-62
2022/11/14 07:00:19;;;;;;;19.03;17.13;;;10.70;99.90;;;;;;6227532;28;20766;-62
2022/11/14 07:03:22;;;;;;;23.63;19.53;;;10.70;99.90;;;;;;6227461;28;20468;-62
2022/11/14 07:06:27;;;;;;;23.03;19.53;;;10.70;99.90;;;;;;6227437;28;20472;-61
2022/11/14 07:09:30;;;;;;;28.50;21.33;;;10.80;99.90;;;;;;6227313;28;20940;-62
2022/11/14 07:12:35;;;;;;;25.40;21.93;;;10.80;99.90;;;;;;6227129;28;20975;-62
2022/11/14 07:15:38;;;;;;;30.13;22.33;;;10.90;99.90;;;;;;6226877;28;20475;-59
2022/11/14 07:18:41;;;;;;;25.00;21.43;;;10.90;99.90;;;;;;6227146;28;20480;-62
2022/11/14 07:21:44;;;;;;;22.70;20.27;;;11.00;99.90;;;;;;6226833;28;20769;-62
2022/11/14 07:24:47;;;;;;;31.37;27.57;;;11.00;99.90;;;;;;6227034;28;20579;-61
2022/11/14 07:27:52;;;;;;;33.20;27.10;;;11.00;99.90;;;;;;6226869;28;20476;-62
2022/11/14 07:30:55;;;;;;;27.43;23.20;;;11.00;99.90;;;;;;6226597;28;20809;-60
2022/11/14 07:33:58;;;;;;;32.57;28.40;;;11.00;99.90;;;;;;6226658;28;20494;-61
2022/11/14 07:37:01;;;;;;;31.33;25.40;;;11.10;99.90;;;;;;6226594;28;20794;-62
2022/11/14 07:40:05;;;;;;;35.77;25.30;;;11.10;99.90;;;;;;6222659;28;20479;-62
2022/11/14 07:43:10;;;;;;;32.23;25.60;;;11.10;99.90;;;;;;6211218;28;20492;-63
2022/11/14 07:46:14;;;;;;;30.20;24.97;;;11.20;99.90;;;;;;6217179;28;20500;-62
2022/11/14 07:49:17;;;;;;;32.93;29.53;;;11.30;99.90;;;;;;6219387;28;20476;-60
2022/11/14 07:52:21;;;;;;;30.80;25.40;;;11.30;99.90;;;;;;6214131;28;20499;-60
2022/11/14 07:55:24;;;;;;;32.20;24.77;;;11.40;99.90;;;;;;6208996;28;20481;-60
2022/11/14 07:58:29;;;;;;;31.37;24.00;;;11.30;99.90;;;;;;6209821;28;20935;-60
2022/11/14 08:01:32;;;;;;;29.73;24.03;;;11.30;99.90;;;;;;6215327;28;20509;-60
2022/11/14 08:04:36;;;;;;;29.67;26.33;;;11.30;99.90;;;;;;6213711;28;20531;-60
2022/11/14 08:07:39;;;;;;;27.57;23.67;;;11.30;99.90;;;;;;6219099;28;20432;-61
2022/11/14 08:10:42;;;;;;;28.27;23.73;;;11.30;99.90;;;;;;6226042;28;20476;-62
2022/11/14 08:13:47;;;;;;;30.13;23.07;;;11.30;99.90;;;;;;6225377;28;20467;-61
2022/11/14 08:16:50;;;;;;;28.10;23.93;;;11.30;99.90;;;;;;6226134;28;20479;-61
2022/11/14 08:19:53;;;;;;;27.43;23.37;;;11.40;99.90;;;;;;6225591;28;20483;-61
2022/11/14 08:23:02;;;;;;;26.27;22.47;;;11.40;99.90;;;;;;6225985;28;20476;-60
2022/11/14 08:26:05;;;;;;;28.40;23.10;;;11.40;99.90;;;;;;6225088;28;20785;-62
2022/11/14 08:29:10;;;;;;;27.83;23.30;;;11.50;99.90;;;;;;6225146;28;20471;-62
2022/11/14 08:32:14;;;;;;;24.47;21.30;;;11.50;99.90;;;;;;6212869;28;20964;-62
2022/11/14 08:35:17;;;;;;;25.57;21.33;;;11.70;99.90;;;;;;6222024;28;20820;-62
2022/11/14 08:38:20;;;;;;;26.13;22.07;;;11.80;99.90;;;;;;6210684;28;20479;-62
2022/11/14 08:41:23;;;;;;;26.73;23.83;;;12.00;99.90;;;;;;6205432;28;20473;-62
2022/11/14 08:44:28;;;;;;;25.20;22.70;;;12.10;99.90;;;;;;6201016;28;20555;-62
2022/11/14 08:47:31;;;;;;;25.27;22.57;;;12.20;99.90;;;;;;6200894;28;20469;-63
2022/11/14 08:50:34;;;;;;;26.50;21.90;;;12.10;99.90;;;;;;6201266;28;20504;-63
2022/11/14 08:53:38;;;;;;;23.80;21.23;;;12.20;99.90;;;;;;6199969;28;20553;-62
2022/11/14 08:56:41;;;;;;;28.43;21.30;;;12.20;99.90;;;;;;6200953;28;20472;-62
2022/11/14 08:59:45;;;;;;;27.40;24.20;;;12.30;99.90;;;;;;6200565;28;20489;-62
2022/11/14 09:02:48;;;;;;;28.73;25.63;;;12.50;99.90;;;;;;6201144;28;20547;-61
2022/11/14 09:05:52;;;;;;;30.60;22.40;;;12.60;99.90;;;;;;6190604;28;20500;-61
2022/11/14 09:08:55;;;;;;;26.13;23.37;;;12.70;99.90;;;;;;6200130;28;20477;-61
2022/11/14 09:11:58;;;;;;;29.83;24.30;;;12.80;99.90;;;;;;6200385;28;20516;-60
2022/11/14 09:15:03;;;;;;;24.20;21.63;;;13.20;99.90;;;;;;6200104;28;20480;-60
2022/11/14 09:18:07;;;;;;;28.30;22.73;;;13.90;99.90;;;;;;6200423;28;20555;-61
2022/11/14 09:21:11;;;;;;;28.83;21.87;;;14.70;99.90;;;;;;6200501;28;20480;-60
2022/11/14 09:24:14;;;;;;;23.83;21.33;;;15.30;99.90;;;;;;6199994;28;20488;-62
2022/11/14 09:27:17;;;;;;;25.50;22.73;;;15.60;99.00;;;;;;6200110;28;20951;-62
2022/11/14 09:30:22;;;;;;;24.73;22.20;;;15.70;98.40;;;;;;6199559;28;20902;-61
2022/11/14 09:33:25;;;;;;;25.60;22.83;;;15.60;97.80;;;;;;6200282;28;20818;-60
2022/11/14 09:36:29;;;;;;;27.90;22.27;;;15.80;97.90;;;;;;6199853;28;20473;-60
2022/11/14 09:39:36;;;;;;;25.83;21.67;;;16.10;97.60;;;;;;6200003;28;20485;-61
2022/11/14 09:42:59;;;;;;;24.70;22.10;;;16.40;96.80;;;;;;6200248;28;20464;-59
2022/11/14 09:46:04;;;;;;;25.77;21.83;;;16.80;96.10;;;;;;6200125;28;20809;-60
2022/11/14 09:49:15;;;;;;;27.60;24.50;;;16.90;95.10;;;;;;6200192;28;20484;-60
2022/11/14 09:52:28;;;;;;;26.40;23.77;;;18.60;94.30;;;;;;6199654;28;20972;-60
2022/11/14 09:55:33;;;;;;;25.73;22.93;;;21.70;89.00;;;;;;6199321;28;20233;-59
2022/11/14 09:58:41;;;;;;;25.53;23.03;;;24.50;72.60;;;;;;6200044;28;20200;-59
2022/11/14 10:01:55;;;;;;;27.00;24.20;;;26.80;59.50;;;;;;6200222;28;20194;-61
2022/11/14 10:05:15;;;;;;;26.40;23.90;;;29.10;48.10;;;;;;6201916;28;20565;-61
2022/11/14 10:08:35;;;;;;;25.40;23.10;;;31.20;41.10;;;;;;6200031;28;20233;-61
2022/11/14 10:11:42;;;;;;;28.30;25.80;;;32.80;36.10;;;;;;6204289;28;20244;-63
2022/11/14 10:15:01;;;;;;;26.15;24.05;;;34.60;33.30;;;;;;6204429;28;20565;-60
2022/11/14 10:18:26;;;;;;;29.30;26.80;;;35.40;30.00;;;;;;6204150;28;20236;-61
2022/11/14 10:21:41;;;;;;;29.80;27.42;;;35.70;28.70;;;;;;6203913;28;20306;-60
2022/11/14 10:24:59;;;;;;;29.10;26.55;;;35.50;27.80;;;;;;6203650;28;20252;-62
2022/11/14 10:28:20;;;;;;;30.08;27.27;;;32.50;29.50;;;;;;6204095;28;20296;-60
2022/11/14 10:31:35;;;;;;;32.30;29.40;;;29.70;33.10;;;;;;6203406;28;20244;-61
2022/11/14 10:34:47;;;;;;;31.87;29.00;;;27.90;35.90;;;;;;6203318;28;20228;-62
2022/11/14 10:38:01;;;;;;;31.30;28.30;;;26.30;38.50;;;;;;6203193;28;20260;-61
2022/11/14 10:41:06;;;;;;;31.43;28.33;;;24.90;41.60;;;;;;6215415;28;20245;-60
2022/11/14 10:44:14;;;;;;;30.33;27.17;;;23.10;44.00;;;;;;6214012;28;20225;-60
2022/11/14 10:47:23;;;;;;;29.83;26.63;;;21.10;48.00;;;;;;6215026;28;20315;-61
2022/11/14 10:50:35;;;;;;;28.07;25.07;;;19.40;52.60;;;;;;6216791;28;20253;-61
2022/11/14 10:53:48;;;;;;;32.60;25.67;;;19.00;55.00;;;;;;6211058;28;20260;-60
2022/11/14 10:56:53;;;;;;;29.00;25.30;;;19.00;56.00;;;;;;6206283;28;20580;-60
2022/11/14 10:59:56;;;;;;;27.17;24.37;;;19.40;56.80;;;;;;6202945;28;20238;-60
2022/11/14 11:02:59;;;;;;;29.33;24.10;;;20.60;56.00;;;;;;6202491;28;20240;-61
2022/11/14 11:06:04;;;;;;;27.33;24.50;;;21.80;53.10;;;;;;6202843;28;20233;-60
2022/11/14 11:12:44;;;;;;;29.20;26.40;;;23.90;48.00;;;;;;6202875;28;20238;-61
2022/11/14 11:15:57;;;;;;;27.33;24.83;;;27.00;44.60;;;;;;6202067;28;20257;-60
2022/11/14 11:19:15;;;;;;;26.80;24.03;;;30.30;37.60;;;;;;6210497;28;20224;-60
2022/11/14 11:22:35;;;;;;;24.77;22.65;;;32.40;33.70;;;;;;6212971;28;20236;-61
2022/11/14 11:25:40;;;;;;;27.15;24.48;;;34.50;30.30;;;;;;6177844;28;20551;-60
2022/11/14 11:28:43;;;;;;;25.60;23.38;;;35.60;28.20;;;;;;6178185;28;20694;-60
2022/11/14 11:31:51;;;;;;;24.85;22.73;;;36.50;26.90;;;;;;6177898;28;20249;-61
2022/11/14 11:34:56;;;;;;;23.95;22.02;;;36.80;26.40;;;;;;6203109;28;20236;-60
2022/11/14 11:38:04;;;;;;;23.42;21.60;;;37.40;25.60;;;;;;6201621;28;20233;-61
2022/11/14 11:41:19;;;;;;;26.13;23.83;;;38.10;24.90;;;;;;6201896;28;20688;-61
2022/11/14 11:44:46;;;;;;;25.60;23.50;;;38.70;24.10;;;;;;6201689;28;20721;-61
2022/11/14 11:47:55;;;;;;;25.23;23.23;;;39.20;23.30;;;;;;6201757;28;20550;-61
2022/11/14 11:51:00;;;;;;;24.60;22.42;;;39.50;23.20;;;;;;6200701;28;20626;-61
2022/11/14 11:54:13;;;;;;;24.00;22.08;;;40.40;22.60;;;;;;6219652;28;20575;-62
2022/11/14 11:57:20;;;;;;;26.00;23.83;;;41.30;21.80;;;;;;6209765;28;20234;-61
2022/11/14 12:00:24;;;;;;;22.67;20.77;;;42.10;21.00;;;;;;6225382;28;20976;-61
2022/11/14 12:03:27;;;;;;;23.05;21.05;;;42.40;20.10;;;;;;6224443;28;20234;-60
2022/11/14 12:06:39;;;;;;;24.10;22.02;;;42.10;20.20;;;;;;6224104;28;20766;-60
2022/11/14 12:09:43;;;;;;;23.73;21.38;;;41.40;20.30;;;;;;6205624;28;20297;-60
2022/11/14 12:13:41;;;;;;;24.10;22.02;;;41.00;20.50;;;;;;6199775;28;20657;-60
2022/11/14 12:17:24;;;;;;;22.98;20.90;;;40.10;20.90;;;;;;6200531;28;20624;-59
2022/11/14 12:20:45;;;;;;;21.80;19.95;;;39.60;21.40;;;;;;6166740;28;20316;-59
2022/11/14 12:24:25;;;;;;;21.27;19.58;;;38.80;21.90;;;;;;6200905;28;20563;-61
2022/11/14 12:27:58;;;;;;;23.23;21.05;;;39.30;21.70;;;;;;6200043;28;20542;-61
2022/11/14 12:31:05;;;;;;;23.17;20.67;;;39.20;21.70;;;;;;6200857;28;20318;-60
2022/11/14 12:34:21;;;;;;;22.05;20.23;;;38.80;21.50;;;;;;6201054;28;20523;-59
2022/11/14 12:37:31;;;;;;;21.50;19.67;;;38.70;22.00;;;;;;6200610;28;20234;-60
2022/11/14 12:40:38;;;;;;;22.67;20.75;;;38.70;21.80;;;;;;6200946;28;20231;-60
2022/11/14 12:43:43;;;;;;;21.73;20.02;;;38.70;21.80;;;;;;6200650;28;20208;-60
2022/11/14 12:47:18;;;;;;;20.88;19.08;;;37.30;22.80;;;;;;6200956;28;20233;-60
2022/11/14 12:50:40;;;;;;;22.13;20.23;;;37.00;22.80;;;;;;6200922;28;20558;-60
2022/11/14 12:53:44;;;;;;;23.73;21.80;;;37.20;22.90;;;;;;6200705;28;20240;-59
2022/11/14 12:57:04;;;;;;;22.83;20.83;;;36.90;22.90;;;;;;6201026;28;20578;-59
2022/11/14 13:00:10;;;;;;;20.00;18.38;;;35.00;24.30;;;;;;6200831;28;20238;-59
2022/11/14 13:03:25;;;;;;;20.15;18.13;;;34.60;24.90;;;;;;6201515;28;20226;-58
2022/11/14 13:06:39;;;;;;;20.55;18.70;;;34.40;25.30;;;;;;6201473;28;20267;-58
2022/11/14 13:09:59;;;;;;;20.60;18.70;;;35.10;25.00;;;;;;6200501;28;20226;-60
2022/11/14 13:23:45;;;;;;;19.33;17.52;;;33.00;25.90;;;;;;6200358;28;20331;-60
2022/11/14 13:26:53;;;;;;;22.60;20.40;;;30.70;28.30;;;;;;6188618;28;20333;-58
2022/11/14 13:29:58;;;;;;;22.10;19.60;;;29.40;29.60;;;;;;6200368;28;20229;-58
2022/11/14 13:33:06;;;;;;;20.03;18.10;;;27.30;33.80;;;;;;6200455;28;20233;-58
2022/11/14 13:36:11;;;;;;;20.47;18.37;;;27.40;33.50;;;;;;6199934;28;20243;-60
2022/11/14 13:39:23;;;;;;;21.30;19.43;;;27.30;33.40;;;;;;6201124;28;20291;-59
2022/11/14 13:42:40;;;;;;;22.50;20.37;;;25.00;37.00;;;;;;6204792;28;20237;-59
2022/11/14 13:45:57;;;;;;;22.20;19.17;;;23.40;40.20;;;;;;6204290;28;20237;-60
2022/11/14 13:49:28;;;;;;;23.17;20.67;;;22.30;42.40;;;;;;6204541;28;20241;-59
2022/11/14 13:52:33;;;;;;;23.43;19.80;;;21.40;44.90;;;;;;6204226;28;20252;-60
2022/11/14 13:55:49;;;;;;;21.17;18.87;;;21.10;45.90;;;;;;6204761;28;20229;-60
2022/11/14 13:59:46;;;;;;;20.73;18.60;;;20.80;46.60;;;;;;6204444;28;20234;-57
2022/11/14 14:03:00;;;;;;;21.90;19.67;;;19.90;48.60;;;;;;6129842;29;20231;-59
2022/11/14 14:06:19;;;;;;;23.77;20.17;;;19.30;50.20;;;;;;6138456;28;20695;-60
2022/11/14 14:09:28;;;;;;;22.53;20.13;;;18.60;52.40;;;;;;6219820;28;20237;-57
2022/11/14 14:12:45;;;;;;;24.67;20.30;;;18.20;53.60;;;;;;6228528;28;20233;-57
2022/11/14 14:16:02;;;;;;;22.90;20.47;;;17.90;55.10;;;;;;6242811;28;20989;-57
2022/11/14 14:19:16;;;;;;;24.33;20.20;;;17.50;57.10;;;;;;6252559;28;20561;-57
2022/11/14 14:22:32;;;;;;;22.70;20.37;;;17.20;58.30;;;;;;6231816;28;20484;-57
2022/11/14 14:25:44;;;;;;;21.73;19.40;;;17.00;59.70;;;;;;6227388;28;20475;-57
2022/11/14 14:28:55;;;;;;;24.23;21.53;;;16.70;61.50;;;;;;6248069;28;20480;-57
2022/11/14 14:32:07;;;;;;;24.27;21.70;;;16.50;63.10;;;;;;6227713;28;20794;-56
2022/11/14 14:35:24;;;;;;;25.70;21.40;;;16.30;65.60;;;;;;6227821;28;20479;-58
2022/11/14 14:38:29;;;;;;;23.77;20.27;;;16.10;67.80;;;;;;6227478;28;20479;-57
2022/11/14 14:41:34;;;;;;;24.93;22.53;;;15.90;70.00;;;;;;6227405;28;20767;-57
2022/11/14 14:44:38;;;;;;;38.17;28.97;;;15.70;72.30;;;;;;6227370;28;20471;-57
2022/11/14 14:47:43;;;;;;;48.70;38.87;;;15.60;74.10;;;;;;6227114;28;20971;-57
2022/11/14 14:50:49;;;;;;;43.77;32.60;;;15.40;76.70;;;;;;6225956;28;20806;-57
2022/11/14 14:53:54;;;;;;;36.07;30.90;;;15.30;78.80;;;;;;6227128;28;20956;-58
2022/11/14 14:57:00;;;;;;;50.67;36.73;;;15.30;80.60;;;;;;6227373;28;20472;-57
2022/11/14 15:00:06;;;;;;;45.30;33.97;;;15.10;82.80;;;;;;6227336;28;20476;-57
2022/11/14 15:03:10;;;;;;;52.47;41.53;;;15.00;84.70;;;;;;6210992;28;20487;-57
2022/11/14 15:06:28;;;;;;;45.93;32.63;;;15.00;86.80;;;;;;6202656;28;20481;-57
2022/11/14 15:09:33;;;;;;;52.90;41.47;;;14.80;89.50;;;;;;6202520;28;20484;-57
2022/11/14 15:12:36;;;;;;;47.27;35.70;;;14.70;90.90;;;;;;6202546;28;20578;-58
2022/11/14 15:15:39;;;;;;;45.30;34.20;;;14.60;92.60;;;;;;6202226;28;20519;-57
2022/11/14 15:18:44;;;;;;;38.73;33.27;;;14.40;94.50;;;;;;6202885;28;20468;-57
2022/11/14 15:22:02;;;;;;;41.30;36.00;;;14.30;95.70;;;;;;6202359;28;20754;-57
2022/11/14 15:25:19;;;;;;;41.13;32.90;;;14.30;96.90;;;;;;6202514;28;20601;-58
2022/11/14 15:28:22;;;;;;;38.23;34.10;;;14.10;98.30;;;;;;6202212;28;20473;-56
2022/11/14 15:31:25;;;;;;;51.23;38.07;;;13.90;99.40;;;;;;6202475;28;20496;-57
2022/11/14 15:34:30;;;;;;;43.97;33.93;;;13.80;99.90;;;;;;6202250;28;20635;-56
2022/11/14 15:37:33;;;;;;;49.30;35.97;;;13.60;99.90;;;;;;6202850;28;20948;-56
2022/11/14 15:40:39;;;;;;;44.07;35.97;;;13.40;99.90;;;;;;6203029;28;20445;-56
2022/11/14 15:43:49;;;;;;;57.13;38.80;;;13.20;99.90;;;;;;6202148;28;20443;-57
2022/11/14 15:46:52;;;;;;;73.27;56.53;;;13.20;99.90;;;;;;6206441;28;20472;-57
2022/11/14 15:50:01;;;;;;;60.40;43.20;;;13.20;99.90;;;;;;6226501;28;20798;-57
2022/11/14 15:53:06;;;;;;;50.57;38.07;;;13.20;99.90;;;;;;6228163;28;20546;-56
2022/11/14 15:56:13;;;;;;;50.53;38.73;;;13.20;99.90;;;;;;6235015;28;20474;-56
2022/11/14 15:59:17;;;;;;;57.97;41.37;;;13.00;99.90;;;;;;6226424;28;20475;-56
2022/11/14 16:02:23;;;;;;;55.70;44.43;;;12.90;99.90;;;;;;6225690;28;20476;-57